Estación Meteorológica Peña el Pijo (Robertgarden) [ 10/16/18 14:06:31 CEST ]

Fecha Hora Presion(HPa) Temp (°C) Humedad % Rocio (°C) Viento ( m/s) Direccion Lluvia 1Hora(mm) Lluvia 24H(mm) LLuvia Total(mm)
2018-Oct-07 01:01:55 1010.000 9.3 64 2.8         0.00
2018-Oct-07 02:01:47 1009.400 7.9 70 2.8         0.00
2018-Oct-07 03:05:08 1009.100 7.2 73 2.7         0.00
2018-Oct-07 04:01:51 1008.700 7.4 75 3.2         0.00
2018-Oct-07 05:01:44 1008.100 8.3 76 4.3         0.00
2018-Oct-07 06:01:46 1008.000 9.3 79 5.8         0.00
2018-Oct-07 07:01:43 1008.300 10.2 80 6.9         0.00
2018-Oct-07 08:01:57 1008.400 9.5 80 6.2         0.00
2018-Oct-07 09:01:41 1008.300 9.8 82 6.8         0.00
2018-Oct-07 10:01:51 1008.300 17.5 72 12.4         0.00
2018-Oct-07 11:01:48 1008.500 22.3 40 8.1         0.00
2018-Oct-07 12:01:44 1008.400 24.8 36 8.6 0.7 WNW     0.00
2018-Oct-07 13:01:41 1008.300 25.3 32 7.4         0.00
2018-Oct-07 14:01:51 1008.000 25.4 29 6.0         0.00
2018-Oct-07 15:01:46 1007.800 26.3 26 5.0 1.4 NW     0.00
2018-Oct-07 16:01:41 1007.400 27.1 27 6.3         0.00
2018-Oct-07 17:01:33 1007.100 25.9 26 4.7         0.00
2018-Oct-07 18:01:53 1007.000 24.4 29 5.2         0.00
2018-Oct-07 19:01:44 1007.100 21.7 33 4.7         0.00
2018-Oct-07 20:01:43 1007.300 17.9 39 3.7         0.00
2018-Oct-07 21:01:56 1008.000 13.9 50 3.7         0.00
2018-Oct-07 22:01:57 1008.900 12.3 59 4.5         0.00
2018-Oct-07 23:01:53 1009.300 14.9 70 9.5 1.6 ENE     0.00

Temperatura Máxima:27°    Temperatura Mínima:
Presión Máxima:1010.000 Hpa    Presión Mínima:1007.000 Hpa


Volver